sensor_id;sensor_type;location;lat;lon;timestamp;P1;durP1;ratioP1;P2;durP2;ratioP2
37855;SDS011;23694;43.274;26.924;2023-04-01T00:00:22;26.03;;;17.20;;
37855;SDS011;23694;43.274;26.924;2023-04-01T00:02:48;27.47;;;17.70;;
37855;SDS011;23694;43.274;26.924;2023-04-01T00:05:14;22.20;;;16.03;;
37855;SDS011;23694;43.274;26.924;2023-04-01T00:07:42;17.97;;;11.03;;
37855;SDS011;23694;43.274;26.924;2023-04-01T00:10:09;22.23;;;14.17;;
37855;SDS011;23694;43.274;26.924;2023-04-01T00:12:38;17.27;;;10.37;;
37855;SDS011;23694;43.274;26.924;2023-04-01T00:15:05;14.47;;;9.40;;
37855;SDS011;23694;43.274;26.924;2023-04-01T00:17:34;17.57;;;10.57;;
37855;SDS011;23694;43.274;26.924;2023-04-01T00:20:00;17.93;;;11.27;;
37855;SDS011;23694;43.274;26.924;2023-04-01T00:22:26;21.57;;;12.97;;
37855;SDS011;23694;43.274;26.924;2023-04-01T00:24:53;24.27;;;15.57;;
37855;SDS011;23694;43.274;26.924;2023-04-01T00:27:19;21.23;;;14.23;;
37855;SDS011;23694;43.274;26.924;2023-04-01T00:29:46;21.57;;;13.30;;
37855;SDS011;23694;43.274;26.924;2023-04-01T00:32:13;19.43;;;13.67;;
37855;SDS011;23694;43.274;26.924;2023-04-01T00:34:40;18.73;;;14.07;;
37855;SDS011;23694;43.274;26.924;2023-04-01T00:37:07;17.80;;;13.83;;
37855;SDS011;23694;43.274;26.924;2023-04-01T00:39:34;19.80;;;12.63;;
37855;SDS011;23694;43.274;26.924;2023-04-01T00:42:02;19.80;;;12.13;;
37855;SDS011;23694;43.274;26.924;2023-04-01T00:44:30;16.73;;;11.20;;
37855;SDS011;23694;43.274;26.924;2023-04-01T00:46:59;16.57;;;9.67;;
37855;SDS011;23694;43.274;26.924;2023-04-01T00:49:27;11.53;;;8.17;;
37855;SDS011;23694;43.274;26.924;2023-04-01T00:51:57;12.67;;;9.10;;
37855;SDS011;23694;43.274;26.924;2023-04-01T00:54:27;16.33;;;9.33;;
37855;SDS011;23694;43.274;26.924;2023-04-01T00:56:56;13.83;;;8.67;;
37855;SDS011;23694;43.274;26.924;2023-04-01T00:59:27;16.50;;;9.47;;
37855;SDS011;23694;43.274;26.924;2023-04-01T01:01:57;18.17;;;10.88;;
37855;SDS011;23694;43.274;26.924;2023-04-01T01:04:27;17.70;;;9.97;;
37855;SDS011;23694;43.274;26.924;2023-04-01T01:09:45;15.97;;;9.80;;
37855;SDS011;23694;43.274;26.924;2023-04-01T01:37:29;15.17;;;9.27;;
37855;SDS011;23694;43.274;26.924;2023-04-01T01:39:58;13.73;;;10.00;;
37855;SDS011;23694;43.274;26.924;2023-04-01T01:42:27;12.40;;;9.17;;
37855;SDS011;23694;43.274;26.924;2023-04-01T01:44:56;15.67;;;9.43;;
37855;SDS011;23694;43.274;26.924;2023-04-01T01:47:25;12.93;;;9.13;;
37855;SDS011;23694;43.274;26.924;2023-04-01T01:49:54;14.47;;;8.10;;
37855;SDS011;23694;43.274;26.924;2023-04-01T01:52:21;14.03;;;8.50;;
37855;SDS011;23694;43.274;26.924;2023-04-01T01:54:49;16.07;;;8.93;;
37855;SDS011;23694;43.274;26.924;2023-04-01T01:57:17;14.70;;;9.10;;
37855;SDS011;23694;43.274;26.924;2023-04-01T01:59:48;14.43;;;9.40;;
37855;SDS011;23694;43.274;26.924;2023-04-01T02:02:17;15.10;;;9.50;;
37855;SDS011;23694;43.274;26.924;2023-04-01T02:04:43;13.80;;;9.47;;
37855;SDS011;23694;43.274;26.924;2023-04-01T02:07:16;15.17;;;10.27;;
37855;SDS011;23694;43.274;26.924;2023-04-01T02:09:47;14.63;;;9.70;;
37855;SDS011;23694;43.274;26.924;2023-04-01T02:12:14;13.70;;;9.13;;
37855;SDS011;23694;43.274;26.924;2023-04-01T02:14:52;15.50;;;8.67;;
37855;SDS011;23694;43.274;26.924;2023-04-01T02:17:23;15.43;;;10.63;;
37855;SDS011;23694;43.274;26.924;2023-04-01T02:20:02;16.80;;;10.83;;
37855;SDS011;23694;43.274;26.924;2023-04-01T02:22:34;15.43;;;11.00;;
37855;SDS011;23694;43.274;26.924;2023-04-01T02:25:05;20.27;;;11.47;;
37855;SDS011;23694;43.274;26.924;2023-04-01T02:27:34;23.33;;;14.02;;
37855;SDS011;23694;43.274;26.924;2023-04-01T02:30:00;23.57;;;15.87;;
37855;SDS011;23694;43.274;26.924;2023-04-01T02:32:26;25.67;;;14.87;;
37855;SDS011;23694;43.274;26.924;2023-04-01T02:34:55;22.77;;;14.23;;
37855;SDS011;23694;43.274;26.924;2023-04-01T02:37:21;22.07;;;14.37;;
37855;SDS011;23694;43.274;26.924;2023-04-01T02:39:48;24.83;;;14.47;;
37855;SDS011;23694;43.274;26.924;2023-04-01T02:42:14;24.73;;;14.03;;
37855;SDS011;23694;43.274;26.924;2023-04-01T02:44:40;20.43;;;14.00;;
37855;SDS011;23694;43.274;26.924;2023-04-01T02:47:06;20.43;;;14.23;;
37855;SDS011;23694;43.274;26.924;2023-04-01T02:49:32;24.03;;;16.00;;
37855;SDS011;23694;43.274;26.924;2023-04-01T02:51:58;20.67;;;15.27;;
37855;SDS011;23694;43.274;26.924;2023-04-01T02:54:24;21.77;;;12.93;;
37855;SDS011;23694;43.274;26.924;2023-04-01T02:56:51;20.03;;;11.90;;
37855;SDS011;23694;43.274;26.924;2023-04-01T02:59:17;17.67;;;11.40;;
37855;SDS011;23694;43.274;26.924;2023-04-01T03:01:43;19.73;;;11.30;;
37855;SDS011;23694;43.274;26.924;2023-04-01T03:04:09;18.53;;;11.27;;
37855;SDS011;23694;43.274;26.924;2023-04-01T03:06:35;16.57;;;11.23;;
37855;SDS011;23694;43.274;26.924;2023-04-01T03:09:01;16.77;;;11.37;;
37855;SDS011;23694;43.274;26.924;2023-04-01T03:11:28;20.60;;;11.80;;
37855;SDS011;23694;43.274;26.924;2023-04-01T03:13:54;20.67;;;11.50;;
37855;SDS011;23694;43.274;26.924;2023-04-01T03:16:20;17.77;;;11.73;;
37855;SDS011;23694;43.274;26.924;2023-04-01T03:18:46;17.43;;;11.90;;
37855;SDS011;23694;43.274;26.924;2023-04-01T03:21:19;19.50;;;11.20;;
37855;SDS011;23694;43.274;26.924;2023-04-01T03:23:47;17.77;;;12.13;;
37855;SDS011;23694;43.274;26.924;2023-04-01T03:26:13;21.73;;;10.63;;
37855;SDS011;23694;43.274;26.924;2023-04-01T03:28:39;17.73;;;11.50;;
37855;SDS011;23694;43.274;26.924;2023-04-01T03:31:05;19.63;;;11.80;;
37855;SDS011;23694;43.274;26.924;2023-04-01T03:33:32;18.60;;;11.93;;
37855;SDS011;23694;43.274;26.924;2023-04-01T03:35:58;19.33;;;11.33;;
37855;SDS011;23694;43.274;26.924;2023-04-01T03:38:25;20.47;;;11.97;;
37855;SDS011;23694;43.274;26.924;2023-04-01T03:40:51;21.70;;;12.70;;
37855;SDS011;23694;43.274;26.924;2023-04-01T03:43:17;18.70;;;11.80;;
37855;SDS011;23694;43.274;26.924;2023-04-01T03:45:47;20.43;;;12.30;;
37855;SDS011;23694;43.274;26.924;2023-04-01T03:48:14;19.83;;;11.77;;
37855;SDS011;23694;43.274;26.924;2023-04-01T03:50:41;21.50;;;11.87;;
37855;SDS011;23694;43.274;26.924;2023-04-01T03:53:07;17.07;;;11.67;;
37855;SDS011;23694;43.274;26.924;2023-04-01T03:55:33;21.30;;;12.43;;
37855;SDS011;23694;43.274;26.924;2023-04-01T03:58:01;20.53;;;12.13;;
37855;SDS011;23694;43.274;26.924;2023-04-01T04:00:30;21.83;;;12.20;;
37855;SDS011;23694;43.274;26.924;2023-04-01T04:02:57;22.90;;;12.60;;
37855;SDS011;23694;43.274;26.924;2023-04-01T04:05:24;22.50;;;12.13;;
37855;SDS011;23694;43.274;26.924;2023-04-01T04:07:51;18.77;;;12.17;;
37855;SDS011;23694;43.274;26.924;2023-04-01T04:10:18;19.80;;;12.30;;
37855;SDS011;23694;43.274;26.924;2023-04-01T04:12:45;25.13;;;13.23;;
37855;SDS011;23694;43.274;26.924;2023-04-01T04:15:11;22.20;;;12.03;;
37855;SDS011;23694;43.274;26.924;2023-04-01T04:17:38;22.03;;;13.90;;
37855;SDS011;23694;43.274;26.924;2023-04-01T04:20:04;27.07;;;17.33;;
37855;SDS011;23694;43.274;26.924;2023-04-01T04:22:30;27.73;;;15.33;;
37855;SDS011;23694;43.274;26.924;2023-04-01T04:24:56;30.77;;;16.93;;
37855;SDS011;23694;43.274;26.924;2023-04-01T04:27:22;85.30;;;48.37;;
37855;SDS011;23694;43.274;26.924;2023-04-01T04:29:48;54.00;;;32.00;;
37855;SDS011;23694;43.274;26.924;2023-04-01T04:32:14;44.73;;;25.30;;
37855;SDS011;23694;43.274;26.924;2023-04-01T04:34:40;30.10;;;20.43;;
37855;SDS011;23694;43.274;26.924;2023-04-01T04:37:06;34.67;;;20.03;;
37855;SDS011;23694;43.274;26.924;2023-04-01T04:39:33;38.30;;;22.20;;
37855;SDS011;23694;43.274;26.924;2023-04-01T04:41:59;37.90;;;21.63;;
37855;SDS011;23694;43.274;26.924;2023-04-01T04:44:25;38.73;;;21.47;;
37855;SDS011;23694;43.274;26.924;2023-04-01T04:46:51;36.43;;;21.17;;
37855;SDS011;23694;43.274;26.924;2023-04-01T04:49:17;38.63;;;22.03;;
37855;SDS011;23694;43.274;26.924;2023-04-01T04:51:43;36.97;;;22.60;;
37855;SDS011;23694;43.274;26.924;2023-04-01T04:54:10;33.80;;;20.77;;
37855;SDS011;23694;43.274;26.924;2023-04-01T04:56:36;42.13;;;21.87;;
37855;SDS011;23694;43.274;26.924;2023-04-01T04:59:02;34.33;;;19.97;;
37855;SDS011;23694;43.274;26.924;2023-04-01T05:01:28;35.20;;;21.77;;
37855;SDS011;23694;43.274;26.924;2023-04-01T05:03:55;37.27;;;22.60;;
37855;SDS011;23694;43.274;26.924;2023-04-01T05:06:21;37.10;;;22.70;;
37855;SDS011;23694;43.274;26.924;2023-04-01T05:08:47;35.63;;;23.20;;
37855;SDS011;23694;43.274;26.924;2023-04-01T05:11:17;39.00;;;23.57;;
37855;SDS011;23694;43.274;26.924;2023-04-01T05:13:44;44.17;;;23.73;;
37855;SDS011;23694;43.274;26.924;2023-04-01T05:16:11;44.13;;;23.17;;
37855;SDS011;23694;43.274;26.924;2023-04-01T05:18:39;38.30;;;23.87;;
37855;SDS011;23694;43.274;26.924;2023-04-01T05:21:06;41.53;;;26.20;;
37855;SDS011;23694;43.274;26.924;2023-04-01T05:23:33;47.77;;;30.33;;
37855;SDS011;23694;43.274;26.924;2023-04-01T05:26:06;44.23;;;29.00;;
37855;SDS011;23694;43.274;26.924;2023-04-01T05:28:34;53.23;;;33.73;;
37855;SDS011;23694;43.274;26.924;2023-04-01T05:31:00;41.80;;;28.63;;
37855;SDS011;23694;43.274;26.924;2023-04-01T05:33:29;51.00;;;25.93;;
37855;SDS011;23694;43.274;26.924;2023-04-01T05:35:55;44.10;;;24.87;;
37855;SDS011;23694;43.274;26.924;2023-04-01T05:38:21;46.93;;;26.67;;
37855;SDS011;23694;43.274;26.924;2023-04-01T05:40:47;52.83;;;28.57;;
37855;SDS011;23694;43.274;26.924;2023-04-01T05:43:13;58.90;;;28.57;;
37855;SDS011;23694;43.274;26.924;2023-04-01T05:45:40;45.00;;;28.00;;
37855;SDS011;23694;43.274;26.924;2023-04-01T05:48:06;49.03;;;28.63;;
37855;SDS011;23694;43.274;26.924;2023-04-01T05:50:32;44.50;;;27.30;;
37855;SDS011;23694;43.274;26.924;2023-04-01T05:52:58;44.67;;;26.20;;
37855;SDS011;23694;43.274;26.924;2023-04-01T05:55:24;42.17;;;24.87;;
37855;SDS011;23694;43.274;26.924;2023-04-01T05:57:50;46.93;;;27.13;;
37855;SDS011;23694;43.274;26.924;2023-04-01T06:00:16;48.37;;;28.20;;
37855;SDS011;23694;43.274;26.924;2023-04-01T06:02:43;50.77;;;28.30;;
37855;SDS011;23694;43.274;26.924;2023-04-01T06:05:11;50.27;;;29.27;;
37855;SDS011;23694;43.274;26.924;2023-04-01T06:07:41;45.70;;;28.65;;
37855;SDS011;23694;43.274;26.924;2023-04-01T06:10:19;53.03;;;27.73;;
37855;SDS011;23694;43.274;26.924;2023-04-01T06:18:39;43.58;;;24.45;;
37855;SDS011;23694;43.274;26.924;2023-04-01T06:26:55;37.50;;;20.90;;
37855;SDS011;23694;43.274;26.924;2023-04-01T06:42:46;26.80;;;12.93;;
37855;SDS011;23694;43.274;26.924;2023-04-01T06:45:26;27.57;;;14.90;;
37855;SDS011;23694;43.274;26.924;2023-04-01T06:48:10;41.75;;;20.50;;
37855;SDS011;23694;43.274;26.924;2023-04-01T06:56:19;27.80;;;15.67;;
37855;SDS011;23694;43.274;26.924;2023-04-01T06:58:54;26.67;;;15.80;;
37855;SDS011;23694;43.274;26.924;2023-04-01T07:01:29;27.63;;;16.43;;
37855;SDS011;23694;43.274;26.924;2023-04-01T07:04:11;31.10;;;16.00;;
37855;SDS011;23694;43.274;26.924;2023-04-01T07:06:56;26.47;;;15.10;;
37855;SDS011;23694;43.274;26.924;2023-04-01T07:09:43;24.70;;;13.20;;
37855;SDS011;23694;43.274;26.924;2023-04-01T07:12:21;17.87;;;10.87;;
37855;SDS011;23694;43.274;26.924;2023-04-01T07:14:53;20.90;;;9.93;;
37855;SDS011;23694;43.274;26.924;2023-04-01T07:17:23;16.90;;;8.00;;
37855;SDS011;23694;43.274;26.924;2023-04-01T07:22:31;10.43;;;5.57;;
37855;SDS011;23694;43.274;26.924;2023-04-01T07:25:02;11.53;;;5.90;;
37855;SDS011;23694;43.274;26.924;2023-04-01T07:27:36;10.03;;;5.73;;
37855;SDS011;23694;43.274;26.924;2023-04-01T07:30:06;8.53;;;4.77;;
37855;SDS011;23694;43.274;26.924;2023-04-01T07:32:51;11.57;;;4.30;;
37855;SDS011;23694;43.274;26.924;2023-04-01T07:35:28;7.90;;;4.80;;
37855;SDS011;23694;43.274;26.924;2023-04-01T07:40:49;10.03;;;4.60;;
37855;SDS011;23694;43.274;26.924;2023-04-01T07:43:36;8.95;;;3.90;;
37855;SDS011;23694;43.274;26.924;2023-04-01T07:51:39;9.53;;;4.20;;
37855;SDS011;23694;43.274;26.924;2023-04-01T07:57:19;10.67;;;4.60;;
37855;SDS011;23694;43.274;26.924;2023-04-01T08:15:37;13.10;;;4.33;;
37855;SDS011;23694;43.274;26.924;2023-04-01T08:21:12;9.80;;;5.13;;
37855;SDS011;23694;43.274;26.924;2023-04-01T08:23:47;7.50;;;4.30;;
37855;SDS011;23694;43.274;26.924;2023-04-01T08:28:58;10.97;;;4.83;;
37855;SDS011;23694;43.274;26.924;2023-04-01T08:31:30;11.30;;;4.73;;
37855;SDS011;23694;43.274;26.924;2023-04-01T08:34:15;10.10;;;4.33;;
37855;SDS011;23694;43.274;26.924;2023-04-01T08:36:47;9.03;;;5.03;;
37855;SDS011;23694;43.274;26.924;2023-04-01T08:39:29;7.70;;;4.90;;
37855;SDS011;23694;43.274;26.924;2023-04-01T08:45:15;9.63;;;5.77;;
37855;SDS011;23694;43.274;26.924;2023-04-01T08:50:36;7.53;;;4.90;;
37855;SDS011;23694;43.274;26.924;2023-04-01T08:56:23;9.10;;;4.23;;
37855;SDS011;23694;43.274;26.924;2023-04-01T08:59:02;10.77;;;4.60;;
37855;SDS011;23694;43.274;26.924;2023-04-01T09:01:57;10.00;;;4.13;;
37855;SDS011;23694;43.274;26.924;2023-04-01T09:34:36;9.27;;;3.97;;
37855;SDS011;23694;43.274;26.924;2023-04-01T09:37:31;10.23;;;5.00;;
37855;SDS011;23694;43.274;26.924;2023-04-01T09:43:14;13.57;;;5.13;;
37855;SDS011;23694;43.274;26.924;2023-04-01T09:48:40;12.77;;;5.60;;
37855;SDS011;23694;43.274;26.924;2023-04-01T10:02:47;6.63;;;3.43;;
37855;SDS011;23694;43.274;26.924;2023-04-01T10:11:12;9.67;;;3.63;;
37855;SDS011;23694;43.274;26.924;2023-04-01T10:31:28;8.38;;;3.03;;
37855;SDS011;23694;43.274;26.924;2023-04-01T10:36:57;8.83;;;2.90;;
37855;SDS011;23694;43.274;26.924;2023-04-01T10:56:11;6.77;;;2.97;;
37855;SDS011;23694;43.274;26.924;2023-04-01T10:58:47;4.93;;;2.60;;
37855;SDS011;23694;43.274;26.924;2023-04-01T11:01:54;9.23;;;3.00;;
37855;SDS011;23694;43.274;26.924;2023-04-01T11:16:32;9.37;;;3.23;;
37855;SDS011;23694;43.274;26.924;2023-04-01T11:27:23;8.13;;;3.50;;
37855;SDS011;23694;43.274;26.924;2023-04-01T11:32:43;6.57;;;2.70;;
37855;SDS011;23694;43.274;26.924;2023-04-01T11:41:13;5.13;;;2.63;;
37855;SDS011;23694;43.274;26.924;2023-04-01T11:52:21;6.10;;;3.03;;
37855;SDS011;23694;43.274;26.924;2023-04-01T12:00:49;7.10;;;2.30;;
37855;SDS011;23694;43.274;26.924;2023-04-01T12:03:38;7.43;;;2.90;;
37855;SDS011;23694;43.274;26.924;2023-04-01T12:06:14;9.63;;;3.67;;
37855;SDS011;23694;43.274;26.924;2023-04-01T12:09:06;10.07;;;3.37;;
37855;SDS011;23694;43.274;26.924;2023-04-01T12:45:34;7.63;;;3.30;;
37855;SDS011;23694;43.274;26.924;2023-04-01T12:53:43;8.43;;;2.90;;
37855;SDS011;23694;43.274;26.924;2023-04-01T12:56:36;6.13;;;2.43;;
37855;SDS011;23694;43.274;26.924;2023-04-01T13:09:02;9.90;;;3.17;;
37855;SDS011;23694;43.274;26.924;2023-04-01T13:19:25;12.20;;;3.13;;
37855;SDS011;23694;43.274;26.924;2023-04-01T13:22:11;15.43;;;3.10;;
37855;SDS011;23694;43.274;26.924;2023-04-01T13:24:55;12.20;;;3.00;;
37855;SDS011;23694;43.274;26.924;2023-04-01T13:27:47;13.57;;;3.80;;
37855;SDS011;23694;43.274;26.924;2023-04-01T13:33:04;10.87;;;3.60;;
37855;SDS011;23694;43.274;26.924;2023-04-01T13:35:40;12.97;;;3.67;;
37855;SDS011;23694;43.274;26.924;2023-04-01T13:43:52;10.47;;;3.27;;
37855;SDS011;23694;43.274;26.924;2023-04-01T14:06:27;12.57;;;3.20;;
37855;SDS011;23694;43.274;26.924;2023-04-01T14:17:38;15.93;;;5.37;;
37855;SDS011;23694;43.274;26.924;2023-04-01T14:20:28;9.50;;;2.80;;
37855;SDS011;23694;43.274;26.924;2023-04-01T14:28:49;13.63;;;3.10;;
37855;SDS011;23694;43.274;26.924;2023-04-01T14:34:40;11.07;;;3.57;;
37855;SDS011;23694;43.274;26.924;2023-04-01T14:37:40;11.80;;;3.00;;
37855;SDS011;23694;43.274;26.924;2023-04-01T14:51:16;13.45;;;4.95;;
37855;SDS011;23694;43.274;26.924;2023-04-01T14:54:02;14.83;;;3.87;;
37855;SDS011;23694;43.274;26.924;2023-04-01T14:56:42;14.33;;;4.20;;
37855;SDS011;23694;43.274;26.924;2023-04-01T14:59:34;17.50;;;3.50;;
37855;SDS011;23694;43.274;26.924;2023-04-01T15:05:18;12.43;;;2.97;;
37855;SDS011;23694;43.274;26.924;2023-04-01T15:38:26;17.10;;;3.80;;
37855;SDS011;23694;43.274;26.924;2023-04-01T15:49:11;145.40;;;59.57;;
37855;SDS011;23694;43.274;26.924;2023-04-01T15:51:58;155.63;;;76.20;;
37855;SDS011;23694;43.274;26.924;2023-04-01T16:09:01;13.77;;;4.13;;
37855;SDS011;23694;43.274;26.924;2023-04-01T16:19:51;16.27;;;3.77;;
37855;SDS011;23694;43.274;26.924;2023-04-01T16:22:42;19.67;;;4.20;;
37855;SDS011;23694;43.274;26.924;2023-04-01T16:28:21;20.30;;;4.43;;
37855;SDS011;23694;43.274;26.924;2023-04-01T16:36:48;24.30;;;7.07;;
37855;SDS011;23694;43.274;26.924;2023-04-01T16:39:27;43.60;;;14.90;;
37855;SDS011;23694;43.274;26.924;2023-04-01T16:45:33;32.17;;;11.03;;
37855;SDS011;23694;43.274;26.924;2023-04-01T16:47:40;25.90;;;6.73;;
37855;SDS011;23694;43.274;26.924;2023-04-01T16:55:18;9.00;;;4.27;;
37855;SDS011;23694;43.274;26.924;2023-04-01T16:57:56;5.20;;;3.03;;
37855;SDS011;23694;43.274;26.924;2023-04-01T17:00:30;12.07;;;4.40;;
37855;SDS011;23694;43.274;26.924;2023-04-01T17:08:34;11.17;;;3.10;;
37855;SDS011;23694;43.274;26.924;2023-04-01T17:14:16;5.95;;;2.88;;
37855;SDS011;23694;43.274;26.924;2023-04-01T17:17:32;7.43;;;3.37;;
37855;SDS011;23694;43.274;26.924;2023-04-01T17:20:02;12.00;;;4.00;;
37855;SDS011;23694;43.274;26.924;2023-04-01T17:30:49;7.30;;;5.03;;
37855;SDS011;23694;43.274;26.924;2023-04-01T17:39:36;12.27;;;7.37;;
37855;SDS011;23694;43.274;26.924;2023-04-01T17:47:26;18.50;;;10.20;;
37855;SDS011;23694;43.274;26.924;2023-04-01T18:09:41;23.80;;;16.80;;
37855;SDS011;23694;43.274;26.924;2023-04-01T18:22:58;22.17;;;14.37;;
37855;SDS011;23694;43.274;26.924;2023-04-01T18:25:32;15.53;;;11.43;;
37855;SDS011;23694;43.274;26.924;2023-04-01T18:38:15;13.97;;;9.00;;
37855;SDS011;23694;43.274;26.924;2023-04-01T18:43:56;11.37;;;8.73;;
37855;SDS011;23694;43.274;26.924;2023-04-01T18:46:41;11.87;;;8.00;;
37855;SDS011;23694;43.274;26.924;2023-04-01T18:56:48;12.57;;;8.17;;
37855;SDS011;23694;43.274;26.924;2023-04-01T18:59:25;9.83;;;7.90;;
37855;SDS011;23694;43.274;26.924;2023-04-01T19:04:47;11.37;;;7.23;;
37855;SDS011;23694;43.274;26.924;2023-04-01T19:15:32;8.68;;;6.53;;
37855;SDS011;23694;43.274;26.924;2023-04-01T19:21:21;11.57;;;7.78;;
37855;SDS011;23694;43.274;26.924;2023-04-01T19:30:47;12.37;;;8.20;;
37855;SDS011;23694;43.274;26.924;2023-04-01T19:38:39;13.63;;;9.03;;
37855;SDS011;23694;43.274;26.924;2023-04-01T19:52:16;12.23;;;8.10;;
37855;SDS011;23694;43.274;26.924;2023-04-01T19:57:46;12.53;;;8.97;;
37855;SDS011;23694;43.274;26.924;2023-04-01T20:00:24;14.60;;;10.37;;
37855;SDS011;23694;43.274;26.924;2023-04-01T20:06:00;15.27;;;10.53;;
37855;SDS011;23694;43.274;26.924;2023-04-01T20:08:36;13.20;;;9.90;;
37855;SDS011;23694;43.274;26.924;2023-04-01T20:14:05;15.10;;;10.60;;
37855;SDS011;23694;43.274;26.924;2023-04-01T20:25:16;19.13;;;11.93;;
37855;SDS011;23694;43.274;26.924;2023-04-01T20:36:06;14.50;;;11.50;;
37855;SDS011;23694;43.274;26.924;2023-04-01T20:41:32;15.30;;;10.53;;
37855;SDS011;23694;43.274;26.924;2023-04-01T20:44:04;14.47;;;11.27;;
37855;SDS011;23694;43.274;26.924;2023-04-01T20:51:59;13.63;;;9.87;;
37855;SDS011;23694;43.274;26.924;2023-04-01T20:57:16;13.17;;;8.20;;
37855;SDS011;23694;43.274;26.924;2023-04-01T21:09:05;9.07;;;7.23;;
37855;SDS011;23694;43.274;26.924;2023-04-01T21:13:58;10.03;;;7.23;;
37855;SDS011;23694;43.274;26.924;2023-04-01T21:16:49;9.93;;;6.70;;
37855;SDS011;23694;43.274;26.924;2023-04-01T21:20:05;9.43;;;6.70;;
37855;SDS011;23694;43.274;26.924;2023-04-01T21:22:40;11.03;;;6.83;;
37855;SDS011;23694;43.274;26.924;2023-04-01T21:31:05;9.33;;;5.10;;
37855;SDS011;23694;43.274;26.924;2023-04-01T21:36:33;6.13;;;4.40;;
37855;SDS011;23694;43.274;26.924;2023-04-01T21:39:52;5.40;;;3.63;;
37855;SDS011;23694;43.274;26.924;2023-04-01T21:47:02;5.13;;;3.00;;
37855;SDS011;23694;43.274;26.924;2023-04-01T21:55:10;5.20;;;2.80;;
37855;SDS011;23694;43.274;26.924;2023-04-01T22:00:32;2.28;;;1.90;;
37855;SDS011;23694;43.274;26.924;2023-04-01T22:06:31;18.83;;;10.10;;
37855;SDS011;23694;43.274;26.924;2023-04-01T22:09:18;2.97;;;2.25;;
37855;SDS011;23694;43.274;26.924;2023-04-01T22:11:57;3.40;;;2.07;;
37855;SDS011;23694;43.274;26.924;2023-04-01T22:20:33;2.10;;;1.53;;
37855;SDS011;23694;43.274;26.924;2023-04-01T22:26:16;1.80;;;1.50;;
37855;SDS011;23694;43.274;26.924;2023-04-01T22:28:55;2.10;;;1.70;;
37855;SDS011;23694;43.274;26.924;2023-04-01T22:31:46;2.10;;;1.30;;
37855;SDS011;23694;43.274;26.924;2023-04-01T22:34:41;2.00;;;1.50;;
37855;SDS011;23694;43.274;26.924;2023-04-01T22:40:12;1.20;;;1.10;;
37855;SDS011;23694;43.274;26.924;2023-04-01T22:42:56;1.50;;;1.20;;
37855;SDS011;23694;43.274;26.924;2023-04-01T22:51:00;1.37;;;1.27;;
37855;SDS011;23694;43.274;26.924;2023-04-01T22:56:30;2.20;;;1.20;;
37855;SDS011;23694;43.274;26.924;2023-04-01T23:01:43;3.43;;;1.20;;
37855;SDS011;23694;43.274;26.924;2023-04-01T23:04:16;1.30;;;1.20;;
37855;SDS011;23694;43.274;26.924;2023-04-01T23:06:50;1.83;;;1.20;;
37855;SDS011;23694;43.274;26.924;2023-04-01T23:09:25;1.00;;;1.00;;
37855;SDS011;23694;43.274;26.924;2023-04-01T23:19:28;1.47;;;1.10;;
37855;SDS011;23694;43.274;26.924;2023-04-01T23:27:51;1.47;;;1.33;;
37855;SDS011;23694;43.274;26.924;2023-04-01T23:33:10;1.90;;;1.80;;
37855;SDS011;23694;43.274;26.924;2023-04-01T23:38:19;1.63;;;1.53;;
37855;SDS011;23694;43.274;26.924;2023-04-01T23:40:50;3.20;;;1.60;;
37855;SDS011;23694;43.274;26.924;2023-04-01T23:43:22;1.70;;;1.60;;
37855;SDS011;23694;43.274;26.924;2023-04-01T23:45:57;1.60;;;1.50;;
37855;SDS011;23694;43.274;26.924;2023-04-01T23:48:28;2.38;;;1.45;;
37855;SDS011;23694;43.274;26.924;2023-04-01T23:50:57;1.60;;;1.50;;
37855;SDS011;23694;43.274;26.924;2023-04-01T23:53:25;2.33;;;1.40;;
37855;SDS011;23694;43.274;26.924;2023-04-01T23:55:55;1.40;;;1.30;;
37855;SDS011;23694;43.274;26.924;2023-04-01T23:58:23;1.50;;;1.40;;
